Time;durP1;ratioP1;P1;durP2;ratioP2;P2;SDS_P1;SDS_P2;PMS_P1;PMS_P2;Temp;Humidity;BMP_temperature;BMP_pressure;BME280_temperature;BME280_humidity;BME280_pressure;Samples;Min_cycle;Max_cycle;Signal;HPM_P1;HPM_P2
2022/07/30 00:01:35;;;;;;;5.30;4.75;;;;;;;17.07;83.64;95580.38;1757176;82;21023;-65
2022/07/30 00:04:03;;;;;;;5.83;5.20;;;;;;;17.09;84.00;95578.52;1757144;82;21489;-65
2022/07/30 00:06:30;;;;;;;6.17;5.00;;;;;;;17.07;84.18;95573.24;1720938;83;21519;-65
2022/07/30 00:08:57;;;;;;;5.45;4.95;;;;;;;17.00;84.11;95571.78;1757202;81;21055;-65
2022/07/30 00:11:24;;;;;;;7.15;5.00;;;;;;;17.07;84.35;95571.05;1757205;82;21015;-65
2022/07/30 00:13:51;;;;;;;8.78;4.95;;;;;;;17.03;84.22;95564.11;1757275;82;21007;-65
2022/07/30 00:16:17;;;;;;;7.25;5.25;;;;;;;17.05;83.84;95571.11;1721118;83;21461;-65
2022/07/30 00:18:44;;;;;;;5.67;5.00;;;;;;;17.03;83.55;95564.11;1757240;81;20979;-65
2022/07/30 00:21:10;;;;;;;5.42;4.80;;;;;;;17.02;84.00;95560.59;1761339;81;21446;-65
2022/07/30 00:23:37;;;;;;;7.35;5.10;;;;;;;16.97;83.45;95553.73;1726711;83;20974;-65
2022/07/30 00:26:04;;;;;;;5.67;5.10;;;;;;;16.89;84.25;95550.08;1726310;83;21516;-65
2022/07/30 00:28:30;;;;;;;5.50;4.58;;;;;;;16.84;83.68;95548.95;1726540;83;21473;-65
2022/07/30 00:30:57;;;;;;;9.15;5.55;;;;;;;16.84;84.00;95548.95;1726202;83;21552;-65
2022/07/30 00:33:23;;;;;;;5.67;5.17;;;;;;;16.76;84.28;95541.73;1726423;83;21062;-65
2022/07/30 00:35:50;;;;;;;5.30;4.80;;;;;;;16.75;83.87;95542.64;1726598;83;21014;-65
2022/07/30 00:38:17;;;;;;;5.10;4.60;;;;;;;16.71;84.83;95543.73;1726710;83;21046;-65
2022/07/30 00:40:46;;;;;;;5.72;5.12;;;;;;;16.66;84.38;95537.27;1726269;83;21022;-65
2022/07/30 00:43:16;;;;;;;7.00;5.05;;;;;;;16.73;84.84;95543.64;1726600;83;21058;-65
2022/07/30 00:45:44;;;;;;;5.95;5.25;;;;;;;16.72;84.10;95537.45;1726355;83;20999;-65
2022/07/30 00:48:12;;;;;;;5.55;4.65;;;;;;;16.70;84.03;95543.78;1726585;83;20998;-65
2022/07/30 00:50:39;;;;;;;6.30;5.22;;;;;;;16.64;84.10;95545.78;1726432;83;21002;-65
2022/07/30 00:53:07;;;;;;;5.00;4.47;;;;;;;16.60;83.73;95537.98;1726541;83;21484;-65
2022/07/30 00:55:34;;;;;;;5.17;4.60;;;;;;;16.55;83.93;95541.31;1726279;83;21014;-65
2022/07/30 00:58:01;;;;;;;5.45;4.95;;;;;;;16.55;84.56;95538.64;1726717;83;21034;-65
2022/07/30 01:00:28;;;;;;;6.33;5.17;;;;;;;16.58;84.83;95534.52;1726328;83;21025;-65
2022/07/30 01:02:55;;;;;;;5.08;4.60;;;;;;;16.53;84.61;95537.41;1726380;83;21029;-65
2022/07/30 01:05:22;;;;;;;6.03;5.42;;;;;;;16.58;84.74;95538.51;1726246;83;21003;-65
2022/07/30 01:07:50;;;;;;;5.15;4.65;;;;;;;16.53;84.39;95529.85;1726485;83;21046;-65
2022/07/30 01:10:17;;;;;;;5.12;4.62;;;;;;;16.48;84.23;95540.73;1726218;83;21010;-65
2022/07/30 01:12:45;;;;;;;5.75;5.00;;;;;;;16.47;84.38;95526.99;1726542;83;21018;-65
2022/07/30 01:15:13;;;;;;;6.55;5.22;;;;;;;16.37;84.91;95531.84;1726529;83;20983;-65
2022/07/30 01:17:41;;;;;;;8.15;4.80;;;;;;;16.42;84.78;95528.52;1726488;83;21491;-65
2022/07/30 01:20:15;;;;;;;5.75;5.15;;;;;;;16.39;84.71;95531.78;1724778;83;21031;-65
2022/07/30 01:22:53;;;;;;;5.67;5.00;;;;;;;16.37;84.67;95534.97;1756763;82;21047;-65
2022/07/30 01:25:40;;;;;;;8.25;5.40;;;;;;;16.40;84.96;95524.19;1757144;82;20976;-65
2022/07/30 01:28:12;;;;;;;6.20;5.15;;;;;;;16.39;84.72;95520.66;1757243;82;21011;-65
2022/07/30 01:30:42;;;;;;;9.75;5.25;;;;;;;16.40;84.31;95525.08;1757209;81;21455;-65
2022/07/30 01:33:13;;;;;;;6.17;5.25;;;;;;;16.43;84.43;95521.42;1757137;82;21024;-65
2022/07/30 01:35:43;;;;;;;6.00;5.40;;;;;;;16.38;84.63;95516.75;1757827;81;20964;-65
2022/07/30 01:38:15;;;;;;;6.67;5.25;;;;;;;16.41;84.94;95517.95;1757451;82;20972;-65
2022/07/30 01:40:44;;;;;;;6.33;5.22;;;;;;;16.37;84.68;95522.98;1757071;81;21549;-65
2022/07/30 01:43:12;;;;;;;7.50;5.00;;;;;;;16.37;84.48;95514.53;1756938;82;22344;-65
2022/07/30 01:45:40;;;;;;;6.87;4.90;;;;;;;16.36;84.69;95508.81;1756892;82;21027;-65
2022/07/30 01:48:09;;;;;;;11.73;5.45;;;;;;;16.36;84.41;95499.50;1757255;82;20999;-65
2022/07/30 01:50:41;;;;;;;5.92;4.60;;;;;;;16.32;83.99;95509.87;1739830;82;21469;-65
2022/07/30 01:53:20;;;;;;;6.58;5.30;;;;;;;16.30;84.25;95500.22;1757149;81;21071;-65
2022/07/30 01:55:49;;;;;;;5.90;5.30;;;;;;;16.22;84.64;95499.20;1721093;83;21039;-65
2022/07/30 01:58:19;;;;;;;9.63;8.05;;;;;;;16.15;84.59;95501.28;1757234;81;20990;-65
2022/07/30 02:00:49;;;;;;;10.90;9.20;;;;;;;16.12;84.88;95501.39;1757103;82;21540;-65
2022/07/30 02:03:16;;;;;;;10.63;6.78;;;;;;;16.13;85.09;95500.95;1757117;82;21446;-65
2022/07/30 02:05:48;;;;;;;8.25;6.80;;;;;;;16.16;84.79;95504.80;1756897;82;21007;-65
2022/07/30 02:08:20;;;;;;;7.60;6.53;;;;;;;16.15;84.73;95500.39;1756166;81;21027;-65
2022/07/30 02:11:06;;;;;;;;;;;;;;;16.18;84.91;95504.28;1740519;82;20999;-65
2022/07/30 02:13:37;;;;;;;8.60;6.05;;;;;;;16.20;84.59;95506.39;1757209;81;20112;-65
2022/07/30 02:16:16;;;;;;;6.15;5.53;;;;;;;16.14;84.11;95501.34;1757117;81;21496;-65
2022/07/30 02:19:05;;;;;;;6.17;5.40;;;;;;;16.09;84.63;95500.19;1756898;82;21059;-65
2022/07/30 02:21:52;;;;;;;6.83;5.55;;;;;;;16.11;84.48;95505.47;1760883;81;21074;-65
2022/07/30 02:24:23;;;;;;;9.13;5.83;;;;;;;16.06;84.61;95505.65;1762435;81;21055;-65
2022/07/30 02:26:55;;;;;;;7.65;5.78;;;;;;;16.04;84.66;95500.84;1726142;83;20978;-65
2022/07/30 02:29:23;;;;;;;9.73;6.28;;;;;;;16.06;84.77;95502.98;1727068;83;21034;-65
2022/07/30 02:31:53;;;;;;;9.60;6.95;;;;;;;16.05;84.34;95499.05;1726480;83;21038;-65
2022/07/30 02:34:23;;;;;;;9.20;6.03;;;;;;;16.01;84.52;95495.66;1726386;83;21505;-65
2022/07/30 02:36:52;;;;;;;7.45;6.03;;;;;;;16.01;84.92;95499.18;1726484;83;21472;-65
2022/07/30 02:39:20;;;;;;;6.85;5.83;;;;;;;16.01;84.71;95496.52;1726328;83;22408;-65
2022/07/30 02:41:49;;;;;;;6.83;5.92;;;;;;;16.03;84.30;95495.14;1726390;83;21006;-65
2022/07/30 02:44:19;;;;;;;7.65;5.92;;;;;;;15.95;84.61;95487.47;1726220;83;21504;-65
2022/07/30 02:46:49;;;;;;;8.05;6.30;;;;;;;15.97;84.33;95490.91;1726156;83;21026;-65
2022/07/30 02:49:21;;;;;;;6.87;6.15;;;;;;;15.90;84.68;95487.23;1726381;83;21059;-65
2022/07/30 02:51:49;;;;;;;9.98;5.60;;;;;;;15.88;84.71;95495.30;1700226;83;21007;-65
2022/07/30 02:54:19;;;;;;;9.15;6.50;;;;;;;15.89;84.68;95493.03;1726314;83;21026;-65
2022/07/30 02:56:49;;;;;;;6.78;6.08;;;;;;;15.84;85.39;95494.16;1726331;83;21058;-65
2022/07/30 02:59:19;;;;;;;7.00;6.30;;;;;;;15.86;85.65;95489.17;1726433;83;21041;-65
2022/07/30 03:01:48;;;;;;;10.08;6.40;;;;;;;15.83;85.21;95494.63;1726495;83;20986;-65
2022/07/30 03:04:18;;;;;;;7.35;6.53;;;;;;;15.80;85.29;95490.77;1726584;83;20966;-65
2022/07/30 03:06:46;;;;;;;6.30;5.23;;;;;;;15.81;85.15;95495.14;1726610;83;21030;-65
2022/07/30 03:09:16;;;;;;;10.03;6.55;;;;;;;15.81;85.36;95504.92;1726435;83;21005;-65
2022/07/30 03:11:44;;;;;;;9.28;7.00;;;;;;;15.84;85.75;95504.33;1726307;83;21033;-65
2022/07/30 03:14:11;;;;;;;7.55;5.40;;;;;;;15.86;85.76;95505.61;1726412;83;21019;-65
2022/07/30 03:16:42;;;;;;;7.85;6.15;;;;;;;15.89;85.75;95508.99;1726557;83;21496;-65
2022/07/30 03:19:10;;;;;;;8.93;7.53;;;;;;;15.97;85.50;95514.86;1726604;83;20982;-65
2022/07/30 03:21:40;;;;;;;8.90;7.00;;;;;;;16.03;86.13;95510.21;1722846;83;21033;-65
2022/07/30 03:24:10;;;;;;;7.67;6.87;;;;;;;16.17;85.93;95511.37;1757493;82;20995;-65
2022/07/30 03:26:39;;;;;;;9.23;7.35;;;;;;;16.35;86.21;95510.20;1720730;83;21062;-65
2022/07/30 03:29:09;;;;;;;9.28;7.20;;;;;;;16.40;85.48;95513.53;1757236;82;20996;-65
2022/07/30 03:31:39;;;;;;;8.43;7.33;;;;;;;16.55;85.52;95510.20;1757259;82;21015;-65
2022/07/30 03:34:08;;;;;;;9.18;7.05;;;;;;;16.69;84.99;95514.09;1757215;82;21497;-65
2022/07/30 03:36:37;;;;;;;11.38;7.65;;;;;;;16.79;84.42;95512.78;1757099;82;21015;-65
2022/07/30 03:39:06;;;;;;;11.12;8.25;;;;;;;16.95;84.28;95516.95;1757159;82;21035;-65
2022/07/30 03:41:35;;;;;;;8.23;6.60;;;;;;;16.98;83.89;95518.14;1757158;82;21038;-65
2022/07/30 03:44:02;;;;;;;9.25;6.60;;;;;;;17.08;84.10;95508.80;1757215;82;21058;-64
2022/07/30 03:46:32;;;;;;;11.38;7.47;;;;;;;17.26;84.19;95502.64;1756952;82;21051;-65
2022/07/30 03:48:59;;;;;;;10.15;7.10;;;;;;;17.38;83.27;95505.66;1757214;82;20983;-65
2022/07/30 03:51:27;;;;;;;8.13;6.62;;;;;;;17.52;83.38;95499.22;1756901;81;21031;-65
2022/07/30 03:53:55;;;;;;;9.50;7.05;;;;;;;17.66;82.92;95496.73;1757424;82;21011;-65
2022/07/30 03:56:40;;;;;;;8.63;6.87;;;;;;;17.79;82.68;95497.03;1757177;82;21054;-65
2022/07/30 03:59:28;;;;;;;7.45;6.50;;;;;;;17.81;81.37;95501.84;1756682;81;21023;-65
2022/07/30 04:02:01;;;;;;;9.35;6.67;;;;;;;17.78;81.58;95489.95;1757177;82;21023;-65
2022/07/30 04:04:30;;;;;;;7.22;6.37;;;;;;;17.84;81.69;95484.36;1755009;81;21043;-65
2022/07/30 04:06:57;;;;;;;9.25;6.03;;;;;;;17.88;82.02;95475.72;1757143;82;20976;-65
2022/07/30 04:09:24;;;;;;;8.13;6.70;;;;;;;17.95;81.67;95478.02;1757274;82;21457;-65
2022/07/30 04:11:51;;;;;;;11.10;6.58;;;;;;;17.99;81.24;95477.38;1756639;82;21055;-65
2022/07/30 04:14:19;;;;;;;8.35;6.20;;;;;;;17.92;81.39;95483.51;1756934;81;21047;-65
2022/07/30 04:16:51;;;;;;;10.60;7.35;;;;;;;17.94;81.63;95494.98;1757315;81;20972;-65
2022/07/30 04:19:39;;;;;;;7.90;6.70;;;;;;;17.90;81.42;95500.06;1757432;81;20976;-65
2022/07/30 04:22:08;;;;;;;7.90;6.35;;;;;;;17.87;81.48;95496.70;1761117;81;21496;-65
2022/07/30 04:24:38;;;;;;;7.53;6.00;;;;;;;17.84;81.51;95498.15;1726253;83;21367;-65
2022/07/30 04:27:05;;;;;;;7.10;6.37;;;;;;;17.87;81.90;95496.70;1726307;83;21050;-65
2022/07/30 04:29:33;;;;;;;8.65;6.20;;;;;;;17.95;81.73;95493.17;1726470;83;21021;-65
2022/07/30 04:31:59;;;;;;;9.13;8.05;;;;;;;17.94;81.50;95488.75;1723570;83;20995;-65
2022/07/30 04:34:49;;;;;;;10.28;7.20;;;;;;;17.92;81.21;95477.31;1726746;83;21018;-65
2022/07/30 04:37:21;;;;;;;7.40;6.28;;;;;;;17.97;81.85;95479.28;1726413;83;21071;-65
2022/07/30 04:39:52;;;;;;;6.53;5.92;;;;;;;17.98;81.58;95474.33;1726339;83;21045;-65
2022/07/30 04:42:17;;;;;;;7.58;6.85;;;;;;;17.95;81.39;95471.34;1726195;83;21077;-65
2022/07/30 04:44:46;;;;;;;8.15;6.92;;;;;;;17.95;81.72;95470.00;1726052;83;20974;-65
2022/07/30 04:47:24;;;;;;;7.95;6.83;;;;;;;17.93;81.33;95474.55;1726279;83;21046;-65
2022/07/30 04:50:11;;;;;;;8.75;7.22;;;;;;;17.90;81.35;95472.03;1726527;83;21018;-65
2022/07/30 04:52:38;;;;;;;9.93;7.03;;;;;;;17.86;81.84;95478.45;1726295;83;21061;-65
2022/07/30 04:55:09;;;;;;;8.15;6.80;;;;;;;17.91;82.04;95473.75;1726750;83;21022;-65
2022/07/30 04:57:39;;;;;;;8.80;7.33;;;;;;;17.95;82.23;95477.16;1709557;83;21002;-65
2022/07/30 05:00:07;;;;;;;8.98;7.55;;;;;;;18.00;82.62;95484.94;1723893;83;21007;-65
2022/07/30 05:02:39;;;;;;;9.65;8.25;;;;;;;18.01;82.88;95479.98;1709788;83;21014;-65
2022/07/30 05:05:08;;;;;;;9.20;7.40;;;;;;;18.09;82.93;95473.78;1726573;83;20990;-65
2022/07/30 05:07:37;;;;;;;8.18;7.17;;;;;;;18.22;82.81;95468.69;1726283;83;21053;-65
2022/07/30 05:10:06;;;;;;;8.95;7.25;;;;;;;18.30;82.24;95461.17;1726496;83;20994;-65
2022/07/30 05:12:36;;;;;;;8.38;7.45;;;;;;;18.35;81.79;95461.33;1726348;83;21459;-65
2022/07/30 05:15:08;;;;;;;11.80;8.13;;;;;;;18.28;81.83;95461.23;1726176;83;21015;-65
2022/07/30 05:17:35;;;;;;;12.13;8.43;;;;;;;18.35;82.18;95463.13;1709880;83;21002;-65
2022/07/30 05:20:05;;;;;;;13.18;8.63;;;;;;;18.40;81.84;95457.08;1726370;83;21049;-65
2022/07/30 05:22:34;;;;;;;8.65;7.55;;;;;;;18.37;81.98;95461.25;1720363;83;21075;-65
2022/07/30 05:25:01;;;;;;;8.35;7.17;;;;;;;18.37;81.55;95461.25;1756865;82;21023;-65
2022/07/30 05:27:27;;;;;;;10.23;7.53;;;;;;;18.34;81.79;95463.61;1757069;82;21485;-65
2022/07/30 05:29:54;;;;;;;10.80;7.58;;;;;;;18.30;82.74;95466.04;1757161;82;21048;-65
2022/07/30 05:32:22;;;;;;;10.08;7.78;;;;;;;18.28;82.49;95460.38;1757304;82;21485;-65
2022/07/30 05:34:48;;;;;;;14.87;8.95;;;;;;;18.32;83.08;95464.16;1720874;83;21030;-65
2022/07/30 05:37:16;;;;;;;7.58;6.75;;;;;;;18.37;83.34;95465.27;1757117;82;21489;-65
2022/07/30 05:39:42;;;;;;;8.88;7.03;;;;;;;18.34;83.20;95475.63;1757301;82;21007;-65
2022/07/30 05:42:27;;;;;;;8.23;7.40;;;;;;;18.38;83.87;95474.99;1756922;82;21051;-65
2022/07/30 05:44:56;;;;;;;8.45;7.20;;;;;;;18.43;83.30;95474.77;1757253;81;21059;-65
2022/07/30 05:47:23;;;;;;;8.45;7.05;;;;;;;18.47;83.83;95481.20;1757202;82;21030;-65
2022/07/30 05:49:50;;;;;;;7.25;6.55;;;;;;;18.45;84.35;95474.22;1757088;82;21042;-65
2022/07/30 05:52:18;;;;;;;7.58;6.78;;;;;;;18.44;84.23;95476.48;1757198;82;21011;-65
2022/07/30 05:54:45;;;;;;;8.83;7.53;;;;;;;18.46;84.78;95474.59;1756863;82;21030;-65
2022/07/30 05:57:24;;;;;;;10.38;7.97;;;;;;;18.50;84.60;95477.52;1756783;82;21075;-65
2022/07/30 05:59:51;;;;;;;9.60;8.03;;;;;;;18.52;84.48;95475.16;1757195;82;21062;-65
2022/07/30 06:02:19;;;;;;;10.00;7.47;;;;;;;18.55;84.61;95479.00;1755789;81;21500;-65
2022/07/30 06:04:56;;;;;;;9.80;7.12;;;;;;;18.66;84.69;95478.91;1722761;82;20988;-65
2022/07/30 06:07:23;;;;;;;10.48;7.92;;;;;;;18.73;84.66;95479.84;1757113;82;21326;-65
2022/07/30 06:09:52;;;;;;;12.70;8.78;;;;;;;18.78;84.64;95486.32;1757009;81;21019;-65
2022/07/30 06:12:18;;;;;;;11.08;9.98;;;;;;;18.84;84.39;95485.12;1757201;82;21492;-65
2022/07/30 06:14:45;;;;;;;9.90;8.90;;;;;;;18.94;84.14;95490.38;1757398;81;21027;-65
2022/07/30 06:17:13;;;;;;;12.07;9.90;;;;;;;18.95;83.90;95488.97;1756926;81;21038;-65
2022/07/30 06:19:52;;;;;;;7.90;7.08;;;;;;;19.00;83.69;95481.56;1755968;81;21510;-65
2022/07/30 06:22:19;;;;;;;7.30;5.97;;;;;;;19.06;83.16;95481.70;1716298;83;21003;-65
2022/07/30 06:24:47;;;;;;;11.20;8.18;;;;;;;19.05;82.88;95489.34;1749018;82;20988;-65
2022/07/30 06:27:18;;;;;;;9.15;8.08;;;;;;;19.02;83.97;95485.47;1749233;81;20999;-65
2022/07/30 06:29:44;;;;;;;8.20;7.37;;;;;;;19.13;84.03;95473.75;1713376;83;20971;-65
2022/07/30 06:32:11;;;;;;;7.75;7.00;;;;;;;19.21;83.88;95476.00;1749041;81;20995;-65
2022/07/30 06:34:39;;;;;;;10.10;7.83;;;;;;;19.23;83.34;95470.95;1713354;84;21051;-65
2022/07/30 06:37:06;;;;;;;10.20;9.20;;;;;;;19.21;84.11;95467.98;1749260;81;20992;-65
2022/07/30 06:39:32;;;;;;;9.65;8.73;;;;;;;19.30;83.94;95474.63;1713061;83;21078;-65
2022/07/30 06:42:01;;;;;;;9.93;8.68;;;;;;;19.35;83.44;95475.23;1712119;84;21027;-65
2022/07/30 06:44:30;;;;;;;7.97;7.17;;;;;;;19.41;83.44;95477.11;1712837;83;20976;-65
2022/07/30 06:47:12;;;;;;;8.78;6.87;;;;;;;19.45;82.77;95468.42;1749351;82;21045;-65
2022/07/30 06:49:39;;;;;;;7.22;6.25;;;;;;;19.46;82.90;95471.02;1713536;84;21007;-65
2022/07/30 06:52:07;;;;;;;5.97;4.60;;;;;;;19.51;82.41;95464.08;1713486;84;20995;-65
2022/07/30 06:54:34;;;;;;;5.17;4.42;;;;;;;19.61;82.19;95463.95;1749480;81;21035;-65
2022/07/30 06:57:03;;;;;;;4.30;3.90;;;;;;;19.69;80.32;95458.68;1748085;81;21445;-65
2022/07/30 06:59:30;;;;;;;5.00;4.55;;;;;;;19.74;80.29;95455.27;1713291;84;21007;-65
2022/07/30 07:02:04;;;;;;;5.42;3.92;;;;;;;19.78;79.32;95453.67;1712954;83;21491;-65
2022/07/30 07:04:34;;;;;;;5.70;3.87;;;;;;;19.88;79.89;95445.95;1749371;81;21094;-65
2022/07/30 07:07:00;;;;;;;3.50;3.20;;;;;;;20.01;79.76;95438.95;1713337;84;21003;-65
2022/07/30 07:09:28;;;;;;;4.17;3.77;;;;;;;20.07;78.92;95429.69;1713481;83;21047;-65
2022/07/30 07:12:00;;;;;;;6.20;3.90;;;;;;;20.15;79.31;95428.75;1711813;83;21011;-66
2022/07/30 07:14:27;;;;;;;16.05;4.33;;;;;;;20.30;79.06;95431.86;1749403;82;21043;-66
2022/07/30 07:16:53;;;;;;;8.38;4.80;;;;;;;20.43;79.24;95432.47;1713413;83;21043;-66
2022/07/30 07:19:39;;;;;;;6.12;3.98;;;;;;;20.66;79.18;95437.81;1749111;82;21492;-65
2022/07/30 07:22:05;;;;;;;10.03;5.47;;;;;;;20.91;78.49;95447.89;1713239;83;21023;-66
2022/07/30 07:24:32;;;;;;;5.97;5.37;;;;;;;21.13;77.35;95442.07;1749324;82;21458;-66
2022/07/30 07:27:07;;;;;;;5.25;3.95;;;;;;;21.35;76.62;95443.78;1747798;81;20980;-65
2022/07/30 07:29:34;;;;;;;5.03;3.40;;;;;;;21.63;76.10;95446.07;1713508;84;21034;-66
2022/07/30 07:32:02;;;;;;;3.77;2.77;;;;;;;21.92;67.42;95443.30;1749283;81;21087;-66
2022/07/30 07:34:30;;;;;;;2.92;2.27;;;;;;;22.25;64.18;95445.59;1713399;83;20996;-66
2022/07/30 07:36:57;;;;;;;2.55;2.35;;;;;;;22.51;58.33;95437.13;1749458;81;20953;-66
2022/07/30 07:39:24;;;;;;;2.37;2.17;;;;;;;22.81;59.98;95437.34;1713116;84;21035;-65
2022/07/30 07:41:50;;;;;;;2.77;2.58;;;;;;;23.09;59.67;95429.56;1748886;81;20991;-65
2022/07/30 07:44:19;;;;;;;2.55;2.30;;;;;;;23.32;61.76;95430.12;1749406;81;21031;-65
2022/07/30 07:46:46;;;;;;;2.42;2.22;;;;;;;23.60;61.92;95429.96;1713800;84;21011;-65
2022/07/30 07:49:13;;;;;;;2.65;2.27;;;;;;;23.83;60.76;95425.61;1749125;82;21039;-66
2022/07/30 07:51:47;;;;;;;3.42;2.40;;;;;;;23.94;58.73;95433.78;1749373;81;21067;-66
2022/07/30 07:54:15;;;;;;;3.37;2.42;;;;;;;24.06;58.19;95423.41;1713441;84;21505;-66
2022/07/30 07:56:43;;;;;;;2.00;1.90;;;;;;;24.12;58.64;95420.77;1749191;81;21435;-65
2022/07/30 07:59:10;;;;;;;2.15;2.02;;;;;;;24.18;58.54;95417.09;1713451;83;21064;-66
2022/07/30 08:01:37;;;;;;;2.05;1.95;;;;;;;24.24;54.89;95419.84;1705170;84;20979;-65
2022/07/30 08:04:22;;;;;;;2.10;1.90;;;;;;;24.29;57.39;95416.77;1749337;82;21505;-66
2022/07/30 08:07:03;;;;;;;3.35;2.27;;;;;;;24.39;56.54;95420.48;1720836;81;21124;-65
2022/07/30 08:09:31;;;;;;;2.40;2.20;;;;;;;24.44;52.95;95412.05;1731113;82;21547;-65
2022/07/30 08:12:00;;;;;;;2.35;2.00;;;;;;;24.49;54.41;95413.94;1748355;81;21075;-65
2022/07/30 08:14:40;;;;;;;2.50;2.30;;;;;;;24.54;52.86;95407.20;1708834;81;21027;-66
2022/07/30 08:17:26;;;;;;;3.00;2.60;;;;;;;24.63;54.40;95402.10;1713236;84;21063;-65
2022/07/30 08:20:01;;;;;;;4.90;3.30;;;;;;;24.75;54.73;95402.00;1713040;83;21014;-65
2022/07/30 08:22:27;;;;;;;4.28;3.70;;;;;;;24.81;52.43;95406.05;1749082;82;21055;-66
2022/07/30 08:24:55;;;;;;;8.20;4.08;;;;;;;24.91;55.13;95403.50;1713280;83;21066;-65
2022/07/30 08:27:22;;;;;;;4.05;3.65;;;;;;;25.00;54.88;95400.09;1749153;82;21012;-65
2022/07/30 08:29:48;;;;;;;12.80;3.85;;;;;;;25.08;55.85;95399.48;1713109;84;21027;-65
2022/07/30 08:32:15;;;;;;;5.45;3.52;;;;;;;25.01;55.45;95397.25;1749360;82;20992;-66
2022/07/30 08:34:42;;;;;;;6.05;3.77;;;;;;;25.09;55.96;95401.19;1713404;83;20979;-66
2022/07/30 08:37:09;;;;;;;3.98;3.30;;;;;;;25.34;55.86;95400.13;1749144;81;20956;-66
2022/07/30 08:39:36;;;;;;;3.50;3.20;;;;;;;25.72;55.83;95409.16;1713410;84;21011;-66
2022/07/30 08:42:04;;;;;;;3.83;3.30;;;;;;;25.92;53.64;95405.36;1749392;82;20977;-65
2022/07/30 08:44:33;;;;;;;5.90;3.47;;;;;;;26.15;53.69;95398.89;1713343;84;21014;-66
2022/07/30 08:47:02;;;;;;;14.87;3.15;;;;;;;26.39;52.68;95397.33;1764110;81;20960;-66
2022/07/30 08:49:48;;;;;;;3.22;2.70;;;;;;;26.59;51.95;95391.61;1713216;84;21469;-66
2022/07/30 08:52:17;;;;;;;3.35;3.05;;;;;;;26.87;52.14;95392.79;1749018;82;20995;-65
2022/07/30 08:54:48;;;;;;;8.30;2.83;;;;;;;27.17;51.96;95391.11;1749044;81;21027;-66
2022/07/30 08:57:15;;;;;;;3.17;2.70;;;;;;;27.38;50.51;95389.23;1713103;83;21008;-65
2022/07/30 08:59:43;;;;;;;3.25;2.40;;;;;;;27.56;49.49;95390.79;1749266;81;20980;-66
2022/07/30 09:02:09;;;;;;;2.80;2.00;;;;;;;27.79;48.65;95394.64;1713500;84;21015;-66
2022/07/30 09:04:38;;;;;;;2.80;2.20;;;;;;;27.92;47.42;95395.30;1713100;83;21454;-66
2022/07/30 09:07:05;;;;;;;2.15;1.95;;;;;;;28.17;46.99;95386.25;1749148;81;21058;-66
2022/07/30 09:09:31;;;;;;;2.33;2.12;;;;;;;28.06;43.97;95392.67;1713411;84;21046;-66
2022/07/30 09:11:58;;;;;;;2.22;1.90;;;;;;;27.78;45.51;95391.58;1748970;82;21019;-66
2022/07/30 09:14:25;;;;;;;6.30;2.20;;;;;;;27.42;45.54;95384.41;1713107;83;21500;-66
2022/07/30 09:16:57;;;;;;;5.62;2.70;;;;;;;27.08;46.07;95379.22;1749324;81;20992;-66
2022/07/30 09:19:24;;;;;;;2.17;1.98;;;;;;;26.80;46.78;95382.13;1713313;84;21050;-65
2022/07/30 09:21:59;;;;;;;2.10;1.90;;;;;;;26.62;48.10;95392.69;1749217;82;22284;-65
2022/07/30 09:24:43;;;;;;;2.25;2.05;;;;;;;26.52;48.24;95395.32;1747401;82;21071;-66
2022/07/30 09:27:12;;;;;;;2.08;1.87;;;;;;;26.39;47.29;95395.13;1713328;84;21002;-66
2022/07/30 09:29:58;;;;;;;2.47;2.25;;;;;;;26.21;48.08;95390.27;1749146;82;21131;-66
2022/07/30 09:32:53;;;;;;;2.00;1.90;;;;;;;26.02;47.56;95384.68;1713427;84;21035;-65
2022/07/30 09:35:40;;;;;;;4.42;2.30;;;;;;;25.88;48.46;95392.10;1749203;82;21008;-65
2022/07/30 09:38:10;;;;;;;4.00;2.27;;;;;;;25.71;49.19;95397.15;1713464;84;20995;-66
2022/07/30 09:40:55;;;;;;;24.65;3.70;;;;;;;25.50;48.83;95395.68;1749092;81;21031;-66
2022/07/30 09:43:27;;;;;;;5.47;2.50;;;;;;;25.24;50.09;95398.15;1748224;81;21047;-65
2022/07/30 09:45:59;;;;;;;5.40;2.50;;;;;;;24.87;52.62;95400.16;1749382;81;21035;-65
2022/07/30 09:48:27;;;;;;;3.92;2.60;;;;;;;24.67;52.98;95399.52;1713162;84;21007;-65
2022/07/30 09:50:54;;;;;;;7.65;2.80;;;;;;;24.40;53.60;95397.95;1705234;84;21444;-65
2022/07/30 09:53:21;;;;;;;6.22;2.62;;;;;;;24.21;55.30;95394.44;1749356;81;20979;-65
2022/07/30 09:55:49;;;;;;;4.67;2.67;;;;;;;23.97;58.41;95414.67;1713069;84;20999;-65
2022/07/30 09:58:16;;;;;;;6.70;2.72;;;;;;;23.67;60.23;95422.67;1749082;81;21513;-65
2022/07/30 10:00:43;;;;;;;29.48;5.58;;;;;;;23.42;61.18;95444.27;1713247;84;21027;-65
2022/07/30 10:03:19;;;;;;;12.90;4.62;;;;;;;23.12;63.23;95471.05;1712958;83;20999;-65
2022/07/30 10:06:05;;;;;;;15.35;5.00;;;;;;;22.57;66.27;95458.70;1749153;82;21050;-65
2022/07/30 10:08:50;;;;;;;11.33;4.70;;;;;;;22.09;70.31;95442.19;1713734;83;21073;-65
2022/07/30 10:11:24;;;;;;;17.27;4.53;;;;;;;21.80;72.07;95430.22;1749125;82;21091;-65
2022/07/30 10:13:58;;;;;;;11.93;5.10;;;;;;;21.71;72.16;95432.15;1748968;81;21032;-65
2022/07/30 10:16:28;;;;;;;13.35;5.22;;;;;;;21.67;72.51;95428.81;1713380;83;20978;-65
2022/07/30 10:18:59;;;;;;;6.70;4.10;;;;;;;21.68;72.77;95422.47;1749151;81;21007;-65
2022/07/30 10:21:44;;;;;;;9.78;4.30;;;;;;;21.58;74.00;95424.03;1713489;84;21046;-65
2022/07/30 10:24:20;;;;;;;9.45;4.08;;;;;;;21.64;73.50;95410.19;1700317;84;21070;-65
2022/07/30 10:27:08;;;;;;;7.25;4.20;;;;;;;21.70;74.95;95406.27;1749241;82;21023;-65
2022/07/30 10:29:40;;;;;;;6.37;4.03;;;;;;;21.86;74.45;95398.05;1747767;81;21135;-65
2022/07/30 10:32:07;;;;;;;5.00;3.50;;;;;;;22.06;74.63;95404.79;1713398;84;20955;-65
2022/07/30 10:34:34;;;;;;;7.80;3.80;;;;;;;22.31;74.19;95404.03;1749283;82;21430;-65
2022/07/30 10:37:04;;;;;;;9.30;4.08;;;;;;;22.61;73.01;95399.72;1713459;84;20966;-65
2022/07/30 10:39:48;;;;;;;7.45;4.12;;;;;;;22.81;73.22;95390.27;1713738;84;21022;-65
2022/07/30 10:43:07;;;;;;;4.42;3.72;;;;;;;23.12;75.01;95386.27;1749377;81;21011;-65
2022/07/30 10:46:16;;;;;;;5.78;3.77;;;;;;;23.35;74.36;95388.66;1713373;84;21039;-65
2022/07/30 10:48:43;;;;;;;7.33;4.60;;;;;;;23.39;71.56;95396.89;1749457;81;20992;-65
2022/07/30 10:51:10;;;;;;;6.35;4.83;;;;;;;23.52;73.51;95392.33;1713379;83;21007;-65
2022/07/30 10:53:46;;;;;;;7.05;5.10;;;;;;;23.55;73.70;95391.24;1749048;82;21011;-65
2022/07/30 10:56:19;;;;;;;18.67;4.67;;;;;;;23.52;72.91;95386.09;1713301;83;21046;-65
2022/07/30 10:59:08;;;;;;;6.00;4.45;;;;;;;23.60;72.01;95384.17;1748845;82;20999;-65
2022/07/30 11:01:54;;;;;;;5.40;4.90;;;;;;;23.67;71.75;95378.22;1713273;83;21091;-65
2022/07/30 11:04:26;;;;;;;5.78;4.62;;;;;;;23.80;72.78;95383.59;1748949;82;21506;-65
2022/07/30 11:07:23;;;;;;;6.47;5.12;;;;;;;23.94;73.18;95375.34;1713431;84;21047;-65
2022/07/30 11:09:52;;;;;;;6.22;4.53;;;;;;;23.98;71.45;95374.61;1749317;82;21012;-65
2022/07/30 11:12:46;;;;;;;5.37;4.85;;;;;;;24.09;70.84;95357.16;1713270;83;20980;-65
2022/07/30 11:15:14;;;;;;;5.20;4.70;;;;;;;24.14;70.85;95352.28;1748790;82;20988;-65
2022/07/30 11:18:04;;;;;;;5.87;4.50;;;;;;;24.21;70.73;95362.58;1713429;84;21011;-65
2022/07/30 11:20:33;;;;;;;4.67;4.15;;;;;;;24.28;70.85;95351.20;1712385;84;21014;-65
2022/07/30 11:23:24;;;;;;;5.37;3.87;;;;;;;24.55;68.95;95340.16;1753275;81;21015;-65
2022/07/30 11:25:51;;;;;;;6.12;4.08;;;;;;;24.96;71.42;95334.67;1726474;83;21019;-65
2022/07/30 11:28:42;;;;;;;4.33;3.92;;;;;;;25.31;68.93;95328.81;1726369;83;21026;-65
2022/07/30 11:31:34;;;;;;;5.42;4.92;;;;;;;25.50;66.40;95316.84;1726613;83;20975;-65
2022/07/30 11:34:24;;;;;;;5.10;4.67;;;;;;;25.57;66.10;95292.89;1726414;83;21019;-65
2022/07/30 11:37:06;;;;;;;6.45;4.58;;;;;;;25.64;69.50;95281.45;1726478;83;21046;-65
2022/07/30 11:39:58;;;;;;;5.90;5.37;;;;;;;25.88;66.81;95285.84;1726673;83;21465;-65
2022/07/30 11:42:35;;;;;;;5.85;5.35;;;;;;;25.77;59.14;95273.67;1726479;83;20982;-65
2022/07/30 11:45:22;;;;;;;7.87;5.45;;;;;;;25.93;58.44;95257.92;1726039;83;21066;-65
2022/07/30 11:47:52;;;;;;;5.92;5.40;;;;;;;26.21;60.14;95244.24;1726984;83;21472;-65
2022/07/30 11:50:29;;;;;;;5.45;4.90;;;;;;;26.65;59.63;95239.52;1726577;83;21025;-65
2022/07/30 11:53:00;;;;;;;5.92;5.40;;;;;;;26.84;55.70;95237.87;1726428;83;21532;-65